Caineville, Utah
Current Conditions -  °F | °C
As of 2:53 AM on Thursday 29 Jan 2015 (Local Time) from KBCE Reporting Station
Clear Clear  
Wind Chill: 30°   Ceiling: Unl
Heat Index: 30°   Visibility: NA
Dew Point: 26°   Wind: 3mph
Humidity: 85%   Direction: 340°NNW
Pressure: 30.34"   Gusts: NA
Location:  38.2517°N, 111.706°W
Report Text: KBCE 290953Z AUTO 34003KT CLR M01/M03 A3034 RMK AO2 SLP223 T10111033 $
Loading
Personal Weather Stations






























Interactive Weather Map New forecast layout! Learn more

10-Day Weather Forecast

Advertisements
Track Severe Weather on mobile